sensor_id;sensor_type;location;lat;lon;timestamp;pressure;altitude;pressure_sealevel;temperature;humidity
46430;BME280;32131;53.454;-6.180;2022-12-29T00:01:48;98609.88;;;4.94;100.00
46430;BME280;32131;53.454;-6.180;2022-12-29T00:04:17;98611.56;;;4.92;100.00
46430;BME280;32131;53.454;-6.180;2022-12-29T00:06:46;98621.78;;;4.90;100.00
46430;BME280;32131;53.454;-6.180;2022-12-29T00:09:16;98614.97;;;4.89;100.00
46430;BME280;32131;53.454;-6.180;2022-12-29T00:11:44;98616.66;;;4.90;100.00
46430;BME280;32131;53.454;-6.180;2022-12-29T00:14:23;98623.47;;;4.86;100.00
46430;BME280;32131;53.454;-6.180;2022-12-29T00:17:10;98622.59;;;4.86;100.00
46430;BME280;32131;53.454;-6.180;2022-12-29T00:19:39;98628.59;;;4.86;100.00
46430;BME280;32131;53.454;-6.180;2022-12-29T00:22:25;98633.69;;;4.83;100.00
46430;BME280;32131;53.454;-6.180;2022-12-29T00:25:12;98639.59;;;4.78;100.00
46430;BME280;32131;53.454;-6.180;2022-12-29T00:27:58;98638.75;;;4.79;100.00
46430;BME280;32131;53.454;-6.180;2022-12-29T00:30:43;98644.72;;;4.76;100.00
46430;BME280;32131;53.454;-6.180;2022-12-29T00:33:32;98653.25;;;4.80;100.00
46430;BME280;32131;53.454;-6.180;2022-12-29T00:36:20;98654.94;;;4.78;100.00
46430;BME280;32131;53.454;-6.180;2022-12-29T00:38:53;98660.06;;;4.76;100.00
46430;BME280;32131;53.454;-6.180;2022-12-29T00:41:44;98660.91;;;4.74;100.00
46430;BME280;32131;53.454;-6.180;2022-12-29T00:44:30;98672.81;;;4.71;100.00
46430;BME280;32131;53.454;-6.180;2022-12-29T00:46:58;98671.94;;;4.71;100.00
46430;BME280;32131;53.454;-6.180;2022-12-29T00:49:34;98671.09;;;4.70;100.00
46430;BME280;32131;53.454;-6.180;2022-12-29T00:52:04;98683.06;;;4.71;100.00
46430;BME280;32131;53.454;-6.180;2022-12-29T00:54:34;98678.78;;;4.72;100.00
46430;BME280;32131;53.454;-6.180;2022-12-29T00:57:09;98683.88;;;4.70;100.00
46430;BME280;32131;53.454;-6.180;2022-12-29T00:59:37;98671.94;;;4.69;100.00
46430;BME280;32131;53.454;-6.180;2022-12-29T01:02:06;98669.38;;;4.69;100.00
46430;BME280;32131;53.454;-6.180;2022-12-29T01:04:37;98677.91;;;4.68;100.00
46430;BME280;32131;53.454;-6.180;2022-12-29T01:07:05;98677.03;;;4.66;100.00
46430;BME280;32131;53.454;-6.180;2022-12-29T01:09:34;98691.53;;;4.66;100.00
46430;BME280;32131;53.454;-6.180;2022-12-29T01:12:19;98689.00;;;4.69;100.00
46430;BME280;32131;53.454;-6.180;2022-12-29T01:15:12;98695.81;;;4.67;100.00
46430;BME280;32131;53.454;-6.180;2022-12-29T01:17:43;98696.66;;;4.70;100.00
46430;BME280;32131;53.454;-6.180;2022-12-29T01:20:13;98690.72;;;4.70;100.00
46430;BME280;32131;53.454;-6.180;2022-12-29T01:22:42;98691.59;;;4.74;100.00
46430;BME280;32131;53.454;-6.180;2022-12-29T01:25:10;98691.59;;;4.77;100.00
46430;BME280;32131;53.454;-6.180;2022-12-29T01:27:39;98696.69;;;4.77;100.00
46430;BME280;32131;53.454;-6.180;2022-12-29T01:30:10;98700.09;;;4.72;100.00
46430;BME280;32131;53.454;-6.180;2022-12-29T01:32:39;98708.63;;;4.75;100.00
46430;BME280;32131;53.454;-6.180;2022-12-29T01:35:08;98720.56;;;4.72;100.00
46430;BME280;32131;53.454;-6.180;2022-12-29T01:37:39;98714.56;;;4.72;100.00
46430;BME280;32131;53.454;-6.180;2022-12-29T01:40:08;98712.00;;;4.70;100.00
46430;BME280;32131;53.454;-6.180;2022-12-29T01:42:37;98718.84;;;4.71;100.00
46430;BME280;32131;53.454;-6.180;2022-12-29T01:45:09;98724.75;;;4.67;100.00
46430;BME280;32131;53.454;-6.180;2022-12-29T01:47:40;98712.00;;;4.69;100.00
46430;BME280;32131;53.454;-6.180;2022-12-29T01:50:13;98724.78;;;4.69;100.00
46430;BME280;32131;53.454;-6.180;2022-12-29T01:52:50;98723.03;;;4.65;100.00
46430;BME280;32131;53.454;-6.180;2022-12-29T01:55:20;98729.88;;;4.64;100.00
46430;BME280;32131;53.454;-6.180;2022-12-29T01:57:51;98730.72;;;4.63;100.00
46430;BME280;32131;53.454;-6.180;2022-12-29T02:00:21;98746.06;;;4.63;100.00
46430;BME280;32131;53.454;-6.180;2022-12-29T02:02:52;98746.03;;;4.60;100.00
46430;BME280;32131;53.454;-6.180;2022-12-29T02:05:25;98744.31;;;4.59;100.00
46430;BME280;32131;53.454;-6.180;2022-12-29T02:07:59;98751.97;;;4.56;100.00
46430;BME280;32131;53.454;-6.180;2022-12-29T02:10:31;98746.81;;;4.54;100.00
46430;BME280;32131;53.454;-6.180;2022-12-29T02:13:00;98754.50;;;4.53;100.00
46430;BME280;32131;53.454;-6.180;2022-12-29T02:15:35;98763.00;;;4.52;100.00
46430;BME280;32131;53.454;-6.180;2022-12-29T02:18:15;98748.50;;;4.51;100.00
46430;BME280;32131;53.454;-6.180;2022-12-29T02:27:12;98757.94;;;4.58;100.00
46430;BME280;32131;53.454;-6.180;2022-12-29T02:30:06;98763.03;;;4.58;100.00
46430;BME280;32131;53.454;-6.180;2022-12-29T02:32:44;98770.69;;;4.55;100.00
46430;BME280;32131;53.454;-6.180;2022-12-29T02:35:23;98773.25;;;4.55;100.00
46430;BME280;32131;53.454;-6.180;2022-12-29T02:38:02;98787.72;;;4.53;100.00
46430;BME280;32131;53.454;-6.180;2022-12-29T02:40:37;98784.31;;;4.52;100.00
46430;BME280;32131;53.454;-6.180;2022-12-29T02:43:16;98801.34;;;4.50;100.00
46430;BME280;32131;53.454;-6.180;2022-12-29T02:45:53;98787.66;;;4.48;100.00
46430;BME280;32131;53.454;-6.180;2022-12-29T02:48:29;98810.69;;;4.48;100.00
46430;BME280;32131;53.454;-6.180;2022-12-29T02:51:02;98808.13;;;4.50;100.00
46430;BME280;32131;53.454;-6.180;2022-12-29T02:53:36;98805.56;;;4.50;100.00
46430;BME280;32131;53.454;-6.180;2022-12-29T02:56:22;98812.44;;;4.54;100.00
46430;BME280;32131;53.454;-6.180;2022-12-29T02:58:51;98828.56;;;4.50;100.00
46430;BME280;32131;53.454;-6.180;2022-12-29T03:01:35;98838.00;;;4.54;100.00
46430;BME280;32131;53.454;-6.180;2022-12-29T03:04:18;98833.81;;;4.61;100.00
46430;BME280;32131;53.454;-6.180;2022-12-29T03:06:57;98831.25;;;4.62;100.00
46430;BME280;32131;53.454;-6.180;2022-12-29T03:09:36;98833.84;;;4.65;100.00
46430;BME280;32131;53.454;-6.180;2022-12-29T03:12:12;98844.84;;;4.58;100.00
46430;BME280;32131;53.454;-6.180;2022-12-29T03:14:52;98863.59;;;4.57;100.00
46430;BME280;32131;53.454;-6.180;2022-12-29T03:17:48;98844.00;;;4.56;100.00
46430;BME280;32131;53.454;-6.180;2022-12-29T03:20:24;98859.38;;;4.62;100.00
46430;BME280;32131;53.454;-6.180;2022-12-29T03:23:00;98855.94;;;4.57;100.00
46430;BME280;32131;53.454;-6.180;2022-12-29T03:25:31;98872.13;;;4.57;100.00
46430;BME280;32131;53.454;-6.180;2022-12-29T03:28:03;98867.88;;;4.61;100.00
46430;BME280;32131;53.454;-6.180;2022-12-29T03:30:36;98877.22;;;4.59;100.00
46430;BME280;32131;53.454;-6.180;2022-12-29T03:33:07;98885.69;;;4.52;100.00
46430;BME280;32131;53.454;-6.180;2022-12-29T03:35:44;98892.47;;;4.50;100.00
46430;BME280;32131;53.454;-6.180;2022-12-29T03:38:16;98904.41;;;4.51;100.00
46430;BME280;32131;53.454;-6.180;2022-12-29T03:40:52;98902.78;;;4.56;100.00
46430;BME280;32131;53.454;-6.180;2022-12-29T03:43:23;98921.63;;;4.64;100.00
46430;BME280;32131;53.454;-6.180;2022-12-29T03:45:53;98924.22;;;4.72;100.00
46430;BME280;32131;53.454;-6.180;2022-12-29T03:48:24;98921.81;;;4.86;100.00
46430;BME280;32131;53.454;-6.180;2022-12-29T03:50:54;98934.66;;;4.92;100.00
46430;BME280;32131;53.454;-6.180;2022-12-29T03:53:24;98940.59;;;4.91;100.00
46430;BME280;32131;53.454;-6.180;2022-12-29T03:55:53;98944.03;;;4.93;100.00
46430;BME280;32131;53.454;-6.180;2022-12-29T03:58:22;98940.81;;;5.13;100.00
46430;BME280;32131;53.454;-6.180;2022-12-29T04:00:52;98946.03;;;5.24;100.00
46430;BME280;32131;53.454;-6.180;2022-12-29T04:03:26;98944.31;;;5.21;100.00
46430;BME280;32131;53.454;-6.180;2022-12-29T04:05:56;98950.19;;;5.09;100.00
46430;BME280;32131;53.454;-6.180;2022-12-29T04:08:24;98944.97;;;4.98;100.00
46430;BME280;32131;53.454;-6.180;2022-12-29T04:10:52;98947.44;;;4.89;100.00
46430;BME280;32131;53.454;-6.180;2022-12-29T04:13:23;98960.13;;;4.78;100.00
46430;BME280;32131;53.454;-6.180;2022-12-29T04:15:51;98959.19;;;4.75;100.00
46430;BME280;32131;53.454;-6.180;2022-12-29T04:18:20;98971.09;;;4.69;100.00
46430;BME280;32131;53.454;-6.180;2022-12-29T04:20:51;98957.41;;;4.64;100.00
46430;BME280;32131;53.454;-6.180;2022-12-29T04:23:32;98960.81;;;4.63;100.00
46430;BME280;32131;53.454;-6.180;2022-12-29T04:26:03;98968.41;;;4.59;100.00
46430;BME280;32131;53.454;-6.180;2022-12-29T04:28:33;98975.19;;;4.55;100.00
46430;BME280;32131;53.454;-6.180;2022-12-29T04:31:01;98970.97;;;4.59;100.00
46430;BME280;32131;53.454;-6.180;2022-12-29T04:33:30;98965.81;;;4.54;100.00
46430;BME280;32131;53.454;-6.180;2022-12-29T04:35:58;98976.84;;;4.51;100.00
46430;BME280;32131;53.454;-6.180;2022-12-29T04:38:27;98972.56;;;4.49;100.00
46430;BME280;32131;53.454;-6.180;2022-12-29T04:40:58;98987.91;;;4.49;100.00
46430;BME280;32131;53.454;-6.180;2022-12-29T04:43:27;98982.78;;;4.49;100.00
46430;BME280;32131;53.454;-6.180;2022-12-29T04:45:55;98987.03;;;4.50;100.00
46430;BME280;32131;53.454;-6.180;2022-12-29T04:48:23;98972.59;;;4.50;100.00
46430;BME280;32131;53.454;-6.180;2022-12-29T04:50:52;98967.47;;;4.52;100.00
46430;BME280;32131;53.454;-6.180;2022-12-29T04:53:20;98982.75;;;4.47;100.00
46430;BME280;32131;53.454;-6.180;2022-12-29T04:55:49;98984.41;;;4.44;100.00
46430;BME280;32131;53.454;-6.180;2022-12-29T04:58:20;98989.59;;;4.47;100.00
46430;BME280;32131;53.454;-6.180;2022-12-29T05:00:49;98983.66;;;4.51;100.00
46430;BME280;32131;53.454;-6.180;2022-12-29T05:03:18;98998.16;;;4.52;100.00
46430;BME280;32131;53.454;-6.180;2022-12-29T05:05:46;99008.34;;;4.49;100.00
46430;BME280;32131;53.454;-6.180;2022-12-29T05:08:15;99011.81;;;4.52;100.00
46430;BME280;32131;53.454;-6.180;2022-12-29T05:10:49;99003.25;;;4.52;100.00
46430;BME280;32131;53.454;-6.180;2022-12-29T05:13:19;99009.19;;;4.48;100.00
46430;BME280;32131;53.454;-6.180;2022-12-29T05:15:50;99010.03;;;4.47;100.00
46430;BME280;32131;53.454;-6.180;2022-12-29T05:18:18;99028.81;;;4.49;100.00
46430;BME280;32131;53.454;-6.180;2022-12-29T05:20:47;99028.81;;;4.49;100.00
46430;BME280;32131;53.454;-6.180;2022-12-29T05:23:16;99022.16;;;4.63;100.00
46430;BME280;32131;53.454;-6.180;2022-12-29T05:25:44;99017.06;;;4.66;100.00
46430;BME280;32131;53.454;-6.180;2022-12-29T05:28:13;99024.69;;;4.62;100.00
46430;BME280;32131;53.454;-6.180;2022-12-29T05:30:44;99027.22;;;4.60;100.00
46430;BME280;32131;53.454;-6.180;2022-12-29T05:33:15;99035.78;;;4.64;100.00
46430;BME280;32131;53.454;-6.180;2022-12-29T05:35:44;99039.25;;;4.67;100.00
46430;BME280;32131;53.454;-6.180;2022-12-29T05:38:12;99031.50;;;4.60;100.00
46430;BME280;32131;53.454;-6.180;2022-12-29T05:40:41;99051.00;;;4.51;100.00
46430;BME280;32131;53.454;-6.180;2022-12-29T05:43:09;99042.41;;;4.48;100.00
46430;BME280;32131;53.454;-6.180;2022-12-29T05:45:37;99049.97;;;4.40;100.00
46430;BME280;32131;53.454;-6.180;2022-12-29T05:48:07;99043.06;;;4.31;100.00
46430;BME280;32131;53.454;-6.180;2022-12-29T05:50:35;99043.00;;;4.28;100.00
46430;BME280;32131;53.454;-6.180;2022-12-29T05:53:05;99040.38;;;4.22;100.00
46430;BME280;32131;53.454;-6.180;2022-12-29T05:55:33;99044.59;;;4.21;100.00
46430;BME280;32131;53.454;-6.180;2022-12-29T05:58:02;99049.75;;;4.23;100.00
46430;BME280;32131;53.454;-6.180;2022-12-29T06:00:30;99055.69;;;4.22;100.00
46430;BME280;32131;53.454;-6.180;2022-12-29T06:02:59;99041.19;;;4.19;100.00
46430;BME280;32131;53.454;-6.180;2022-12-29T06:05:29;99034.31;;;4.17;100.00
46430;BME280;32131;53.454;-6.180;2022-12-29T06:07:57;99035.97;;;4.12;100.00
46430;BME280;32131;53.454;-6.180;2022-12-29T06:10:26;99024.84;;;4.09;100.00
46430;BME280;32131;53.454;-6.180;2022-12-29T06:12:54;99027.47;;;4.11;100.00
46430;BME280;32131;53.454;-6.180;2022-12-29T06:15:22;99024.03;;;4.12;100.00
46430;BME280;32131;53.454;-6.180;2022-12-29T06:17:50;99030.03;;;4.14;100.00
46430;BME280;32131;53.454;-6.180;2022-12-29T06:20:19;99024.91;;;4.13;100.00
46430;BME280;32131;53.454;-6.180;2022-12-29T06:22:48;99039.34;;;4.11;100.00
46430;BME280;32131;53.454;-6.180;2022-12-29T06:25:17;99035.94;;;4.10;100.00
46430;BME280;32131;53.454;-6.180;2022-12-29T06:27:45;99024.84;;;4.09;100.00
46430;BME280;32131;53.454;-6.180;2022-12-29T06:30:13;99029.16;;;4.12;99.96
46430;BME280;32131;53.454;-6.180;2022-12-29T06:32:43;99033.41;;;4.12;99.78
46430;BME280;32131;53.454;-6.180;2022-12-29T06:35:12;99039.38;;;4.12;99.53
46430;BME280;32131;53.454;-6.180;2022-12-29T06:37:40;99038.47;;;4.08;99.59
46430;BME280;32131;53.454;-6.180;2022-12-29T06:40:11;99033.34;;;4.08;99.61
46430;BME280;32131;53.454;-6.180;2022-12-29T06:42:40;99034.19;;;4.07;99.73
46430;BME280;32131;53.454;-6.180;2022-12-29T06:45:09;99049.56;;;4.09;99.46
46430;BME280;32131;53.454;-6.180;2022-12-29T06:47:37;99053.00;;;4.11;99.49
46430;BME280;32131;53.454;-6.180;2022-12-29T06:50:06;99052.13;;;4.11;99.95
46430;BME280;32131;53.454;-6.180;2022-12-29T06:52:34;99056.47;;;4.15;100.00
46430;BME280;32131;53.454;-6.180;2022-12-29T06:55:03;99047.91;;;4.14;100.00
46430;BME280;32131;53.454;-6.180;2022-12-29T06:57:33;99041.84;;;4.07;100.00
46430;BME280;32131;53.454;-6.180;2022-12-29T07:00:01;99034.09;;;4.01;100.00
46430;BME280;32131;53.454;-6.180;2022-12-29T07:02:30;99049.41;;;4.00;100.00
46430;BME280;32131;53.454;-6.180;2022-12-29T07:04:58;99058.81;;;4.02;100.00
46430;BME280;32131;53.454;-6.180;2022-12-29T07:07:27;99047.63;;;3.96;100.00
46430;BME280;32131;53.454;-6.180;2022-12-29T07:09:55;99046.72;;;3.92;100.00
46430;BME280;32131;53.454;-6.180;2022-12-29T07:12:26;99063.69;;;3.87;100.00
46430;BME280;32131;53.454;-6.180;2022-12-29T07:14:55;99060.25;;;3.85;100.00
46430;BME280;32131;53.454;-6.180;2022-12-29T07:17:24;99052.59;;;3.85;100.00
46430;BME280;32131;53.454;-6.180;2022-12-29T07:19:52;99072.28;;;3.92;100.00
46430;BME280;32131;53.454;-6.180;2022-12-29T07:22:20;99062.88;;;3.91;100.00
46430;BME280;32131;53.454;-6.180;2022-12-29T07:24:49;99070.59;;;3.94;100.00
46430;BME280;32131;53.454;-6.180;2022-12-29T07:27:17;99066.31;;;3.91;100.00
46430;BME280;32131;53.454;-6.180;2022-12-29T07:29:45;99067.13;;;3.89;100.00
46430;BME280;32131;53.454;-6.180;2022-12-29T07:32:15;99075.63;;;3.88;100.00
46430;BME280;32131;53.454;-6.180;2022-12-29T07:34:44;99073.09;;;3.89;100.00
46430;BME280;32131;53.454;-6.180;2022-12-29T07:37:15;99081.56;;;3.87;100.00
46430;BME280;32131;53.454;-6.180;2022-12-29T07:39:43;99084.19;;;3.90;100.00
46430;BME280;32131;53.454;-6.180;2022-12-29T07:42:11;99079.09;;;3.91;100.00
46430;BME280;32131;53.454;-6.180;2022-12-29T07:44:39;99077.28;;;3.86;100.00
46430;BME280;32131;53.454;-6.180;2022-12-29T07:47:08;99074.72;;;3.86;100.00
46430;BME280;32131;53.454;-6.180;2022-12-29T07:49:37;99085.75;;;3.82;100.00
46430;BME280;32131;53.454;-6.180;2022-12-29T07:52:07;99078.84;;;3.77;100.00
46430;BME280;32131;53.454;-6.180;2022-12-29T07:54:35;99088.25;;;3.80;100.00
46430;BME280;32131;53.454;-6.180;2022-12-29T07:57:03;99099.34;;;3.81;100.00
46430;BME280;32131;53.454;-6.180;2022-12-29T07:59:32;99101.00;;;3.78;100.00
46430;BME280;32131;53.454;-6.180;2022-12-29T08:02:00;99103.56;;;3.78;100.00
46430;BME280;32131;53.454;-6.180;2022-12-29T08:04:29;99101.00;;;3.77;100.00
46430;BME280;32131;53.454;-6.180;2022-12-29T08:06:59;99115.50;;;3.80;100.00
46430;BME280;32131;53.454;-6.180;2022-12-29T08:09:27;99103.53;;;3.77;100.00
46430;BME280;32131;53.454;-6.180;2022-12-29T08:11:56;99116.16;;;3.69;100.00
46430;BME280;32131;53.454;-6.180;2022-12-29T08:14:24;99096.63;;;3.71;100.00
46430;BME280;32131;53.454;-6.180;2022-12-29T08:16:52;99105.13;;;3.72;100.00
46430;BME280;32131;53.454;-6.180;2022-12-29T08:19:20;99106.03;;;3.72;100.00
46430;BME280;32131;53.454;-6.180;2022-12-29T08:21:51;99107.75;;;3.73;100.00
46430;BME280;32131;53.454;-6.180;2022-12-29T08:24:21;99099.28;;;3.76;100.00
46430;BME280;32131;53.454;-6.180;2022-12-29T08:26:50;99113.72;;;3.75;100.00
46430;BME280;32131;53.454;-6.180;2022-12-29T08:29:18;99116.25;;;3.75;100.00
46430;BME280;32131;53.454;-6.180;2022-12-29T08:31:48;99109.44;;;3.74;100.00
46430;BME280;32131;53.454;-6.180;2022-12-29T08:34:16;99115.34;;;3.72;100.00
46430;BME280;32131;53.454;-6.180;2022-12-29T08:36:44;99113.69;;;3.72;100.00
46430;BME280;32131;53.454;-6.180;2022-12-29T08:39:13;99110.28;;;3.73;100.00
46430;BME280;32131;53.454;-6.180;2022-12-29T08:41:42;99117.16;;;3.76;100.00
46430;BME280;32131;53.454;-6.180;2022-12-29T08:48:06;99132.41;;;3.73;100.00
46430;BME280;32131;53.454;-6.180;2022-12-29T08:50:38;99143.47;;;3.73;100.00
46430;BME280;32131;53.454;-6.180;2022-12-29T08:53:11;99153.69;;;3.73;100.00
46430;BME280;32131;53.454;-6.180;2022-12-29T08:55:44;99161.31;;;3.72;100.00
46430;BME280;32131;53.454;-6.180;2022-12-29T08:58:15;99163.91;;;3.73;100.00
46430;BME280;32131;53.454;-6.180;2022-12-29T09:00:53;99176.72;;;3.76;100.00
46430;BME280;32131;53.454;-6.180;2022-12-29T09:03:28;99167.38;;;3.78;100.00
46430;BME280;32131;53.454;-6.180;2022-12-29T09:06:23;99183.53;;;3.77;100.00
46430;BME280;32131;53.454;-6.180;2022-12-29T09:08:55;99199.78;;;3.83;100.00
46430;BME280;32131;53.454;-6.180;2022-12-29T09:11:25;99181.88;;;3.80;100.00
46430;BME280;32131;53.454;-6.180;2022-12-29T09:14:19;99219.34;;;3.81;99.98
46430;BME280;32131;53.454;-6.180;2022-12-29T09:17:32;99214.25;;;3.81;99.62
46430;BME280;32131;53.454;-6.180;2022-12-29T09:20:38;99197.97;;;3.75;99.71
46430;BME280;32131;53.454;-6.180;2022-12-29T09:23:14;99225.19;;;3.73;99.96
46430;BME280;32131;53.454;-6.180;2022-12-29T09:25:42;99217.38;;;3.67;100.00
46430;BME280;32131;53.454;-6.180;2022-12-29T09:28:11;99229.31;;;3.68;100.00
46430;BME280;32131;53.454;-6.180;2022-12-29T09:30:43;99211.53;;;3.71;100.00
46430;BME280;32131;53.454;-6.180;2022-12-29T09:33:12;99232.91;;;3.78;100.00
46430;BME280;32131;53.454;-6.180;2022-12-29T09:35:41;99219.47;;;3.87;100.00
46430;BME280;32131;53.454;-6.180;2022-12-29T09:38:10;99223.75;;;3.88;99.99
46430;BME280;32131;53.454;-6.180;2022-12-29T09:40:39;99228.84;;;3.88;100.00
46430;BME280;32131;53.454;-6.180;2022-12-29T09:43:19;99227.13;;;3.87;100.00
46430;BME280;32131;53.454;-6.180;2022-12-29T09:45:59;99225.47;;;3.89;100.00
46430;BME280;32131;53.454;-6.180;2022-12-29T09:48:33;99220.38;;;3.92;99.93
46430;BME280;32131;53.454;-6.180;2022-12-29T09:51:07;99233.22;;;3.93;99.63
46430;BME280;32131;53.454;-6.180;2022-12-29T09:53:40;99235.72;;;3.92;99.42
46430;BME280;32131;53.454;-6.180;2022-12-29T09:56:13;99249.38;;;3.94;99.16
46430;BME280;32131;53.454;-6.180;2022-12-29T09:58:49;99246.91;;;3.99;99.04
46430;BME280;32131;53.454;-6.180;2022-12-29T10:01:28;99252.03;;;4.00;98.81
46430;BME280;32131;53.454;-6.180;2022-12-29T10:03:59;99253.75;;;4.00;98.77
46430;BME280;32131;53.454;-6.180;2022-12-29T10:06:34;99248.63;;;4.00;98.74
46430;BME280;32131;53.454;-6.180;2022-12-29T10:09:33;99241.81;;;4.00;98.72
46430;BME280;32131;53.454;-6.180;2022-12-29T10:12:15;99251.19;;;4.00;98.66
46430;BME280;32131;53.454;-6.180;2022-12-29T10:14:59;99258.91;;;4.03;98.46
46430;BME280;32131;53.454;-6.180;2022-12-29T10:17:40;99256.41;;;4.07;98.23
46430;BME280;32131;53.454;-6.180;2022-12-29T10:20:19;99264.22;;;4.14;97.93
46430;BME280;32131;53.454;-6.180;2022-12-29T10:23:08;99279.66;;;4.21;97.82
46430;BME280;32131;53.454;-6.180;2022-12-29T10:25:41;99270.50;;;4.31;97.69
46430;BME280;32131;53.454;-6.180;2022-12-29T10:28:17;99274.88;;;4.38;97.40
46430;BME280;32131;53.454;-6.180;2022-12-29T10:30:47;99272.34;;;4.41;97.07
46430;BME280;32131;53.454;-6.180;2022-12-29T10:33:21;99301.72;;;4.65;96.85
46430;BME280;32131;53.454;-6.180;2022-12-29T10:35:51;99290.53;;;5.14;95.27
46430;BME280;32131;53.454;-6.180;2022-12-29T10:38:26;99293.44;;;5.42;93.75
46430;BME280;32131;53.454;-6.180;2022-12-29T10:40:59;99296.81;;;5.36;92.97
46430;BME280;32131;53.454;-6.180;2022-12-29T10:43:30;99293.97;;;5.16;93.47
46430;BME280;32131;53.454;-6.180;2022-12-29T10:46:08;99307.00;;;5.34;94.18
46430;BME280;32131;53.454;-6.180;2022-12-29T10:48:45;99321.00;;;5.60;93.48
46430;BME280;32131;53.454;-6.180;2022-12-29T10:51:19;99312.06;;;5.97;92.33
46430;BME280;32131;53.454;-6.180;2022-12-29T10:53:51;99302.13;;;6.24;91.34
46430;BME280;32131;53.454;-6.180;2022-12-29T10:56:30;99315.09;;;6.39;90.59
46430;BME280;32131;53.454;-6.180;2022-12-29T10:59:06;99315.03;;;6.35;89.90
46430;BME280;32131;53.454;-6.180;2022-12-29T11:01:48;99296.88;;;6.13;89.90
46430;BME280;32131;53.454;-6.180;2022-12-29T11:04:34;99302.66;;;5.96;90.25
46430;BME280;32131;53.454;-6.180;2022-12-29T11:07:04;99313.66;;;5.88;91.02
46430;BME280;32131;53.454;-6.180;2022-12-29T11:09:43;99333.28;;;5.86;91.19
46430;BME280;32131;53.454;-6.180;2022-12-29T11:12:21;99327.41;;;5.94;90.96
46430;BME280;32131;53.454;-6.180;2022-12-29T11:15:12;99330.00;;;5.97;90.51
46430;BME280;32131;53.454;-6.180;2022-12-29T11:17:57;99343.72;;;6.00;90.27
46430;BME280;32131;53.454;-6.180;2022-12-29T11:20:33;99350.66;;;6.10;90.61
46430;BME280;32131;53.454;-6.180;2022-12-29T11:23:20;99359.34;;;6.20;89.48
46430;BME280;32131;53.454;-6.180;2022-12-29T11:26:06;99372.19;;;6.24;88.23
46430;BME280;32131;53.454;-6.180;2022-12-29T11:28:35;99370.38;;;6.14;87.98
46430;BME280;32131;53.454;-6.180;2022-12-29T11:31:06;99381.34;;;6.04;88.29
46430;BME280;32131;53.454;-6.180;2022-12-29T11:33:38;99389.78;;;5.96;88.29
46430;BME280;32131;53.454;-6.180;2022-12-29T11:36:14;99382.88;;;5.92;88.69
46430;BME280;32131;53.454;-6.180;2022-12-29T11:38:48;99388.75;;;5.83;88.21
46430;BME280;32131;53.454;-6.180;2022-12-29T11:41:22;99394.63;;;5.75;88.37
46430;BME280;32131;53.454;-6.180;2022-12-29T11:43:53;99389.38;;;5.65;88.32
46430;BME280;32131;53.454;-6.180;2022-12-29T11:46:29;99387.53;;;5.58;88.44
46430;BME280;32131;53.454;-6.180;2022-12-29T11:49:00;99390.91;;;5.54;89.19
46430;BME280;32131;53.454;-6.180;2022-12-29T11:51:38;99402.81;;;5.52;88.78
46430;BME280;32131;53.454;-6.180;2022-12-29T11:54:24;99394.25;;;5.50;88.51
46430;BME280;32131;53.454;-6.180;2022-12-29T11:56:54;99411.47;;;5.57;88.02
46430;BME280;32131;53.454;-6.180;2022-12-29T11:59:39;99414.19;;;5.70;86.66
46430;BME280;32131;53.454;-6.180;2022-12-29T12:02:24;99408.28;;;5.75;86.02
46430;BME280;32131;53.454;-6.180;2022-12-29T12:04:59;99420.25;;;5.76;86.16
46430;BME280;32131;53.454;-6.180;2022-12-29T12:07:39;99408.28;;;5.75;86.60
46430;BME280;32131;53.454;-6.180;2022-12-29T12:10:18;99424.50;;;5.76;86.75
46430;BME280;32131;53.454;-6.180;2022-12-29T12:12:59;99418.53;;;5.75;86.93
46430;BME280;32131;53.454;-6.180;2022-12-29T12:15:37;99423.66;;;5.74;87.69
46430;BME280;32131;53.454;-6.180;2022-12-29T12:18:17;99430.50;;;5.75;87.93
46430;BME280;32131;53.454;-6.180;2022-12-29T12:20:50;99427.94;;;5.75;88.33
46430;BME280;32131;53.454;-6.180;2022-12-29T12:24:03;99435.56;;;5.73;89.02
46430;BME280;32131;53.454;-6.180;2022-12-29T12:26:53;99438.13;;;5.72;89.11
46430;BME280;32131;53.454;-6.180;2022-12-29T12:29:48;99461.16;;;5.72;89.36
46430;BME280;32131;53.454;-6.180;2022-12-29T12:32:24;99448.38;;;5.72;89.19
46430;BME280;32131;53.454;-6.180;2022-12-29T12:34:58;99448.38;;;5.72;89.22
46430;BME280;32131;53.454;-6.180;2022-12-29T12:37:47;99466.28;;;5.72;88.91
46430;BME280;32131;53.454;-6.180;2022-12-29T12:40:39;99468.94;;;5.76;88.64
46430;BME280;32131;53.454;-6.180;2022-12-29T12:43:35;99472.44;;;5.83;88.15
46430;BME280;32131;53.454;-6.180;2022-12-29T12:46:24;99476.75;;;5.86;87.47
46430;BME280;32131;53.454;-6.180;2022-12-29T12:49:22;99475.09;;;5.92;86.67
46430;BME280;32131;53.454;-6.180;2022-12-29T12:52:02;99478.56;;;5.94;86.96
46430;BME280;32131;53.454;-6.180;2022-12-29T12:54:45;99481.91;;;5.89;87.43
46430;BME280;32131;53.454;-6.180;2022-12-29T12:57:27;99491.25;;;5.85;87.94
46430;BME280;32131;53.454;-6.180;2022-12-29T13:00:09;99495.66;;;5.95;87.95
46430;BME280;32131;53.454;-6.180;2022-12-29T13:02:54;99499.22;;;6.02;87.73
46430;BME280;32131;53.454;-6.180;2022-12-29T13:05:41;99493.28;;;6.05;87.27
46430;BME280;32131;53.454;-6.180;2022-12-29T13:08:44;99507.94;;;6.15;87.11
46430;BME280;32131;53.454;-6.180;2022-12-29T13:11:23;99511.47;;;6.25;87.00
46430;BME280;32131;53.454;-6.180;2022-12-29T13:14:13;99521.81;;;6.31;86.96
46430;BME280;32131;53.454;-6.180;2022-12-29T13:16:49;99533.91;;;6.40;86.16
46430;BME280;32131;53.454;-6.180;2022-12-29T13:19:27;99535.63;;;6.41;85.90
46430;BME280;32131;53.454;-6.180;2022-12-29T13:22:05;99526.16;;;6.37;85.94
46430;BME280;32131;53.454;-6.180;2022-12-29T13:24:51;99535.56;;;6.36;85.23
46430;BME280;32131;53.454;-6.180;2022-12-29T13:27:27;99547.47;;;6.33;85.32
46430;BME280;32131;53.454;-6.180;2022-12-29T13:30:12;99558.53;;;6.28;84.95
46430;BME280;32131;53.454;-6.180;2022-12-29T13:32:52;99564.47;;;6.24;85.53
46430;BME280;32131;53.454;-6.180;2022-12-29T13:35:48;99567.78;;;6.19;84.95
46430;BME280;32131;53.454;-6.180;2022-12-29T13:38:25;99572.78;;;6.11;85.09
46430;BME280;32131;53.454;-6.180;2022-12-29T13:41:01;99588.09;;;6.06;84.91